Time;durP1;ratioP1;P1;durP2;ratioP2;P2;SDS_P1;SDS_P2;PMS_P1;PMS_P2;Temp;Humidity;BMP_temperature;BMP_pressure;BME280_temperature;BME280_humidity;BME280_pressure;Samples;Min_cycle;Max_cycle;Signal;HPM_P1;HPM_P2
2023/09/03 00:00:05;;;;;;;0.00;0.00;;;;;;;;;;1729604;28;20218;-64
2023/09/03 00:00:56;;;;;;;0.00;0.00;;;;;;;;;;1725380;28;20243;-63
2023/09/03 00:01:48;;;;;;;0.00;0.00;;;;;;;;;;1724851;28;20291;-64
2023/09/03 00:02:41;;;;;;;0.00;0.00;;;;;;;;;;1730245;28;20210;-64
2023/09/03 00:03:32;;;;;;;0.00;0.00;;;;;;;;;;1725620;28;20204;-63
2023/09/03 00:04:23;;;;;;;0.00;0.00;;;;;;;;;;1730499;28;20301;-64
2023/09/03 00:05:15;;;;;;;0.00;0.00;;;;;;;;;;1724550;28;20670;-64
2023/09/03 00:06:06;;;;;;;0.00;0.00;;;;;;;;;;1725501;28;20200;-61
2023/09/03 00:06:58;;;;;;;0.00;0.00;;;;;;;;;;1727799;28;20207;-63
2023/09/03 00:07:50;;;;;;;0.00;0.00;;;;;;;;;;1726379;28;20196;-63
2023/09/03 00:08:42;;;;;;;0.00;0.00;;;;;;;;;;1731168;28;20219;-63
2023/09/03 00:09:33;;;;;;;0.00;0.00;;;;;;;;;;1725450;28;20238;-64
2023/09/03 00:10:25;;;;;;;0.00;0.00;;;;;;;;;;1729469;28;20207;-63
2023/09/03 00:11:16;;;;;;;0.00;0.00;;;;;;;;;;1725454;28;20196;-63
2023/09/03 00:12:09;;;;;;;0.00;0.00;;;;;;;;;;1728323;28;20222;-63
2023/09/03 00:13:00;;;;;;;0.00;0.00;;;;;;;;;;1728655;28;20227;-64
2023/09/03 00:13:52;;;;;;;0.00;0.00;;;;;;;;;;1729778;28;20210;-63
2023/09/03 00:14:43;;;;;;;0.00;0.00;;;;;;;;;;1726498;28;20211;-63
2023/09/03 00:15:39;;;;;;;0.00;0.00;;;;;;;;;;1727911;28;20322;-63
2023/09/03 00:16:31;;;;;;;0.00;0.00;;;;;;;;;;1725530;28;20335;-64
2023/09/03 00:17:22;;;;;;;0.00;0.00;;;;;;;;;;1731360;28;20660;-63
2023/09/03 00:18:14;;;;;;;0.00;0.00;;;;;;;;;;1727907;28;20204;-64
2023/09/03 00:19:07;;;;;;;0.00;0.00;;;;;;;;;;1728049;28;20304;-64
2023/09/03 00:19:58;;;;;;;0.00;0.00;;;;;;;;;;1750532;23;20216;-64
2023/09/03 00:20:55;;;;;;;0.00;0.00;;;;;;;;;;1741707;28;20234;-61
2023/09/03 00:21:47;;;;;;;0.00;0.00;;;;;;;;;;1746042;28;20285;-61
2023/09/03 00:22:39;;;;;;;0.00;0.00;;;;;;;;;;1746973;28;20217;-61
2023/09/03 00:23:31;;;;;;;0.00;0.00;;;;;;;;;;1746198;28;20210;-60
2023/09/03 00:24:22;;;;;;;0.00;0.00;;;;;;;;;;1745467;28;20234;-60
2023/09/03 00:25:14;;;;;;;0.00;0.00;;;;;;;;;;1746675;28;20837;-61
2023/09/03 00:26:06;;;;;;;0.00;0.00;;;;;;;;;;1748195;28;20252;-60
2023/09/03 00:26:58;;;;;;;0.00;0.00;;;;;;;;;;1747176;28;20229;-60
2023/09/03 00:27:49;;;;;;;0.00;0.00;;;;;;;;;;1740762;28;20211;-61
2023/09/03 00:28:40;;;;;;;0.00;0.00;;;;;;;;;;1745711;28;20213;-61
2023/09/03 00:29:35;;;;;;;0.00;0.00;;;;;;;;;;1746180;28;20228;-61
2023/09/03 00:30:26;;;;;;;0.00;0.00;;;;;;;;;;1743573;28;20219;-61
2023/09/03 00:31:17;;;;;;;0.00;0.00;;;;;;;;;;1752024;28;20206;-61
2023/09/03 00:32:09;;;;;;;0.00;0.00;;;;;;;;;;1752609;28;20231;-61
2023/09/03 00:33:01;;;;;;;0.00;0.00;;;;;;;;;;1753068;28;20205;-61
2023/09/03 00:33:53;;;;;;;0.00;0.00;;;;;;;;;;1752329;28;20213;-61
2023/09/03 00:34:45;;;;;;;0.00;0.00;;;;;;;;;;1753195;28;20723;-61
2023/09/03 00:35:39;;;;;;;0.00;0.00;;;;;;;;;;1750935;28;20246;-61
2023/09/03 00:36:30;;;;;;;0.00;0.00;;;;;;;;;;1752976;28;20667;-61
2023/09/03 00:37:22;;;;;;;0.00;0.00;;;;;;;;;;1752443;28;20225;-61
2023/09/03 00:38:13;;;;;;;0.00;0.00;;;;;;;;;;1753618;28;20205;-60
2023/09/03 00:39:04;;;;;;;0.00;0.00;;;;;;;;;;1752481;28;20229;-61
2023/09/03 00:39:56;;;;;;;0.00;0.00;;;;;;;;;;1753104;28;20209;-61
2023/09/03 00:40:47;;;;;;;0.00;0.00;;;;;;;;;;1751040;28;20225;-61
2023/09/03 00:41:38;;;;;;;0.00;0.00;;;;;;;;;;1753099;28;20202;-61
2023/09/03 00:42:30;;;;;;;0.00;0.00;;;;;;;;;;1752805;28;20285;-60
2023/09/03 00:43:21;;;;;;;0.00;0.00;;;;;;;;;;1752876;28;20228;-61
2023/09/03 00:44:15;;;;;;;0.00;0.00;;;;;;;;;;1752973;28;20618;-61
2023/09/03 00:45:06;;;;;;;0.00;0.00;;;;;;;;;;1752843;28;20211;-60
2023/09/03 00:45:59;;;;;;;0.00;0.00;;;;;;;;;;1751007;28;20324;-61
2023/09/03 00:46:51;;;;;;;0.00;0.00;;;;;;;;;;1753177;28;20683;-60
2023/09/03 00:47:42;;;;;;;0.00;0.00;;;;;;;;;;1752305;28;20209;-60
2023/09/03 00:48:34;;;;;;;0.00;0.00;;;;;;;;;;1752952;28;20210;-60
2023/09/03 00:49:28;;;;;;;0.00;0.00;;;;;;;;;;1751997;28;20674;-60
2023/09/03 00:50:19;;;;;;;0.00;0.00;;;;;;;;;;1744852;28;20218;-62
2023/09/03 00:51:11;;;;;;;0.00;0.00;;;;;;;;;;1752932;28;20212;-60
2023/09/03 00:52:03;;;;;;;0.00;0.00;;;;;;;;;;1752558;28;20231;-60
2023/09/03 00:52:54;;;;;;;0.00;0.00;;;;;;;;;;1752776;28;20214;-61
2023/09/03 00:53:47;;;;;;;0.00;0.00;;;;;;;;;;1752368;28;20233;-61
2023/09/03 00:54:39;;;;;;;0.00;0.00;;;;;;;;;;1752881;28;20973;-60
2023/09/03 00:55:32;;;;;;;0.00;0.00;;;;;;;;;;1748638;28;20233;-61
2023/09/03 00:56:24;;;;;;;0.00;0.00;;;;;;;;;;1749109;28;20213;-61
2023/09/03 00:57:15;;;;;;;0.00;0.00;;;;;;;;;;1752580;28;20213;-61
2023/09/03 00:58:06;;;;;;;0.00;0.00;;;;;;;;;;1752373;28;20565;-61
2023/09/03 00:59:00;;;;;;;0.00;0.00;;;;;;;;;;1752245;28;20879;-61
2023/09/03 00:59:52;;;;;;;0.00;0.00;;;;;;;;;;1752424;28;20202;-61
2023/09/03 01:00:44;;;;;;;0.00;0.00;;;;;;;;;;1750847;28;20233;-60
2023/09/03 01:01:36;;;;;;;0.00;0.00;;;;;;;;;;1752463;28;20201;-61
2023/09/03 01:02:28;;;;;;;0.00;0.00;;;;;;;;;;1750658;28;20715;-60
2023/09/03 01:03:20;;;;;;;0.00;0.00;;;;;;;;;;1753040;28;20250;-60
2023/09/03 01:04:12;;;;;;;0.00;0.00;;;;;;;;;;1752336;28;20205;-61
2023/09/03 01:05:04;;;;;;;0.00;0.00;;;;;;;;;;1752578;28;20302;-61
2023/09/03 01:05:56;;;;;;;0.00;0.00;;;;;;;;;;1750789;28;20348;-60
2023/09/03 01:06:49;;;;;;;0.00;0.00;;;;;;;;;;1752765;28;20653;-60
2023/09/03 01:07:41;;;;;;;0.10;0.10;;;;;;;;;;1752341;28;20210;-61
2023/09/03 01:08:32;;;;;;;0.00;0.00;;;;;;;;;;1752675;28;20221;-60
2023/09/03 01:09:24;;;;;;;0.00;0.00;;;;;;;;;;1752243;28;20212;-60
2023/09/03 01:10:16;;;;;;;0.00;0.00;;;;;;;;;;1752962;28;20236;-60
2023/09/03 01:11:10;;;;;;;0.00;0.00;;;;;;;;;;1750787;28;20249;-60
2023/09/03 01:12:08;;;;;;;0.00;0.00;;;;;;;;;;1752196;28;20696;-60
2023/09/03 01:13:02;;;;;;;0.00;0.00;;;;;;;;;;1752324;28;20206;-60
2023/09/03 01:13:57;;;;;;;0.00;0.00;;;;;;;;;;1752060;28;20206;-60
2023/09/03 01:14:53;;;;;;;0.00;0.00;;;;;;;;;;1752439;28;20201;-61
2023/09/03 01:15:47;;;;;;;0.00;0.00;;;;;;;;;;1750964;28;20767;-61
2023/09/03 01:16:41;;;;;;;0.00;0.00;;;;;;;;;;1752325;28;20205;-61
2023/09/03 01:17:46;;;;;;;0.00;0.00;;;;;;;;;;1751732;28;20217;-61
2023/09/03 01:18:38;;;;;;;0.00;0.00;;;;;;;;;;1752219;28;20213;-60
2023/09/03 01:19:38;;;;;;;0.00;0.00;;;;;;;;;;1751911;28;20292;-60
2023/09/03 01:20:33;;;;;;;0.00;0.00;;;;;;;;;;1750247;28;20252;-60
2023/09/03 01:21:35;;;;;;;0.00;0.00;;;;;;;;;;1752464;28;20201;-60
2023/09/03 01:22:32;;;;;;;0.00;0.00;;;;;;;;;;1751943;28;20222;-61
2023/09/03 01:23:30;;;;;;;0.00;0.00;;;;;;;;;;1752598;28;20680;-60
2023/09/03 01:24:32;;;;;;;0.00;0.00;;;;;;;;;;1751999;28;20207;-61
2023/09/03 01:25:32;;;;;;;0.00;0.00;;;;;;;;;;1744559;28;20204;-60
2023/09/03 01:26:36;;;;;;;0.00;0.00;;;;;;;;;;1752243;28;20202;-61
2023/09/03 01:27:36;;;;;;;0.00;0.00;;;;;;;;;;1751599;28;20190;-60
2023/09/03 01:28:30;;;;;;;0.00;0.00;;;;;;;;;;1752629;28;20201;-60
2023/09/03 01:29:22;;;;;;;0.00;0.00;;;;;;;;;;1751396;28;20644;-61
2023/09/03 01:30:15;;;;;;;0.00;0.00;;;;;;;;;;1751536;28;20644;-60
2023/09/03 01:31:08;;;;;;;0.00;0.00;;;;;;;;;;1751379;28;20270;-60
2023/09/03 01:32:00;;;;;;;0.00;0.00;;;;;;;;;;1751967;28;20237;-61
2023/09/03 01:32:52;;;;;;;0.00;0.00;;;;;;;;;;1752086;28;20209;-60
2023/09/03 01:33:44;;;;;;;0.00;0.00;;;;;;;;;;1751232;28;20593;-60
2023/09/03 01:34:37;;;;;;;0.00;0.00;;;;;;;;;;1751875;28;20317;-60
2023/09/03 01:35:28;;;;;;;0.00;0.00;;;;;;;;;;1748905;28;20246;-60
2023/09/03 01:36:20;;;;;;;0.00;0.00;;;;;;;;;;1752476;28;20243;-60
2023/09/03 01:37:12;;;;;;;0.00;0.00;;;;;;;;;;1751688;28;20213;-60
2023/09/03 01:38:04;;;;;;;0.00;0.00;;;;;;;;;;1752488;28;20210;-61
2023/09/03 01:38:58;;;;;;;0.00;0.00;;;;;;;;;;1751956;28;20225;-60
2023/09/03 01:39:50;;;;;;;0.00;0.00;;;;;;;;;;1752295;28;20359;-60
2023/09/03 01:40:42;;;;;;;0.00;0.00;;;;;;;;;;1748913;28;20246;-60
2023/09/03 01:41:33;;;;;;;0.00;0.00;;;;;;;;;;1752127;28;20208;-61
2023/09/03 01:42:25;;;;;;;0.00;0.00;;;;;;;;;;1751909;28;20385;-61
2023/09/03 01:43:17;;;;;;;0.00;0.00;;;;;;;;;;1752372;28;20216;-61
2023/09/03 01:44:09;;;;;;;0.00;0.00;;;;;;;;;;1751878;28;20573;-61
2023/09/03 01:45:01;;;;;;;0.00;0.00;;;;;;;;;;1752316;28;20235;-61
2023/09/03 01:45:56;;;;;;;0.00;0.00;;;;;;;;;;1748590;28;20233;-61
2023/09/03 01:46:49;;;;;;;0.00;0.00;;;;;;;;;;1752208;28;20206;-61
2023/09/03 01:47:46;;;;;;;0.00;0.00;;;;;;;;;;1751357;28;20278;-61
2023/09/03 01:48:46;;;;;;;0.00;0.00;;;;;;;;;;1752433;28;20193;-61
2023/09/03 01:49:41;;;;;;;0.00;0.00;;;;;;;;;;1751646;28;20292;-60
2023/09/03 01:50:36;;;;;;;0.00;0.00;;;;;;;;;;1749330;28;20233;-61
2023/09/03 01:51:32;;;;;;;0.00;0.00;;;;;;;;;;1752285;28;20202;-61
2023/09/03 01:52:29;;;;;;;0.00;0.00;;;;;;;;;;1750211;28;20241;-61
2023/09/03 01:53:22;;;;;;;0.00;0.00;;;;;;;;;;1751718;28;20206;-61
2023/09/03 01:54:17;;;;;;;0.00;0.00;;;;;;;;;;1749238;28;20205;-61
2023/09/03 01:55:10;;;;;;;0.00;0.00;;;;;;;;;;1752379;28;20585;-61
2023/09/03 01:56:03;;;;;;;0.00;0.00;;;;;;;;;;1749973;28;20229;-61
2023/09/03 01:56:58;;;;;;;0.00;0.00;;;;;;;;;;1752065;28;20229;-61
2023/09/03 01:57:53;;;;;;;0.00;0.00;;;;;;;;;;1751567;28;20763;-60
2023/09/03 01:58:46;;;;;;;0.00;0.00;;;;;;;;;;1751762;28;20213;-61
2023/09/03 01:59:41;;;;;;;0.00;0.00;;;;;;;;;;1752219;28;20647;-61
2023/09/03 02:00:33;;;;;;;0.00;0.00;;;;;;;;;;1749235;28;20241;-61
2023/09/03 02:01:30;;;;;;;0.00;0.00;;;;;;;;;;1752173;28;20289;-60
2023/09/03 02:02:21;;;;;;;0.00;0.00;;;;;;;;;;1752048;28;20225;-60
2023/09/03 02:03:14;;;;;;;0.00;0.00;;;;;;;;;;1752348;28;20205;-61
2023/09/03 02:04:05;;;;;;;0.00;0.00;;;;;;;;;;1749726;28;20585;-61
2023/09/03 02:04:57;;;;;;;0.00;0.00;;;;;;;;;;1752303;28;20208;-61
2023/09/03 02:05:48;;;;;;;0.00;0.00;;;;;;;;;;1747407;28;20233;-61
2023/09/03 02:06:39;;;;;;;0.00;0.00;;;;;;;;;;1752009;28;20295;-61
2023/09/03 02:07:32;;;;;;;0.00;0.00;;;;;;;;;;1751835;28;20201;-61
2023/09/03 02:08:23;;;;;;;0.00;0.00;;;;;;;;;;1752347;28;20216;-61
2023/09/03 02:09:14;;;;;;;0.00;0.00;;;;;;;;;;1750008;28;20210;-60
2023/09/03 02:10:07;;;;;;;0.00;0.00;;;;;;;;;;1752167;28;20840;-61
2023/09/03 02:10:58;;;;;;;0.00;0.00;;;;;;;;;;1749901;28;20242;-61
2023/09/03 02:11:50;;;;;;;0.00;0.00;;;;;;;;;;1752271;28;20208;-61
2023/09/03 02:12:41;;;;;;;0.00;0.00;;;;;;;;;;1750587;28;20201;-61
2023/09/03 02:13:32;;;;;;;0.00;0.00;;;;;;;;;;1752433;28;20204;-61
2023/09/03 02:14:26;;;;;;;0.00;0.00;;;;;;;;;;1750338;28;20925;-61
2023/09/03 02:15:18;;;;;;;0.00;0.00;;;;;;;;;;1750945;28;20205;-60
2023/09/03 02:16:10;;;;;;;0.00;0.00;;;;;;;;;;1751099;28;20217;-60
2023/09/03 02:17:02;;;;;;;0.00;0.00;;;;;;;;;;1751772;28;20617;-60
2023/09/03 02:17:55;;;;;;;0.00;0.00;;;;;;;;;;1752065;28;20249;-60
2023/09/03 02:18:47;;;;;;;0.00;0.00;;;;;;;;;;1750570;28;20494;-61
2023/09/03 02:19:38;;;;;;;0.00;0.00;;;;;;;;;;1751588;28;20706;-60
2023/09/03 02:20:30;;;;;;;0.00;0.00;;;;;;;;;;1748990;28;20362;-60
2023/09/03 02:21:22;;;;;;;0.00;0.00;;;;;;;;;;1752480;28;20210;-61
2023/09/03 02:22:14;;;;;;;0.00;0.00;;;;;;;;;;1749958;28;20205;-60
2023/09/03 02:23:05;;;;;;;0.00;0.00;;;;;;;;;;1752052;28;20518;-61
2023/09/03 02:23:56;;;;;;;0.00;0.00;;;;;;;;;;1749875;28;20209;-61
2023/09/03 02:24:48;;;;;;;0.00;0.00;;;;;;;;;;1752330;28;20720;-61
2023/09/03 02:25:39;;;;;;;0.00;0.00;;;;;;;;;;1749994;28;20308;-61
2023/09/03 02:26:31;;;;;;;0.00;0.00;;;;;;;;;;1752141;28;20691;-60
2023/09/03 02:27:23;;;;;;;0.00;0.00;;;;;;;;;;1750173;28;20216;-61
2023/09/03 02:28:14;;;;;;;0.00;0.00;;;;;;;;;;1752007;28;20206;-61
2023/09/03 02:29:05;;;;;;;0.00;0.00;;;;;;;;;;1749692;28;20210;-61
2023/09/03 02:29:57;;;;;;;0.00;0.00;;;;;;;;;;1752101;28;20337;-61
2023/09/03 02:30:49;;;;;;;0.00;0.00;;;;;;;;;;1750648;28;20229;-60
2023/09/03 02:31:41;;;;;;;0.00;0.00;;;;;;;;;;1753594;28;20267;-60
2023/09/03 02:32:33;;;;;;;0.00;0.00;;;;;;;;;;1751478;28;20501;-61
2023/09/03 02:33:24;;;;;;;0.00;0.00;;;;;;;;;;1753983;28;20201;-61
2023/09/03 02:34:16;;;;;;;0.00;0.00;;;;;;;;;;1751299;28;20215;-60
2023/09/03 02:35:07;;;;;;;0.00;0.00;;;;;;;;;;1753492;28;20224;-61
2023/09/03 02:35:58;;;;;;;0.00;0.00;;;;;;;;;;1750067;28;20691;-61
2023/09/03 02:36:50;;;;;;;0.00;0.00;;;;;;;;;;1753683;28;20201;-61
2023/09/03 02:37:41;;;;;;;0.00;0.00;;;;;;;;;;1752858;28;20691;-61
2023/09/03 02:38:33;;;;;;;0.00;0.00;;;;;;;;;;1753754;28;20792;-61
2023/09/03 02:39:25;;;;;;;0.00;0.00;;;;;;;;;;1751723;28;20425;-61
2023/09/03 02:40:16;;;;;;;0.00;0.00;;;;;;;;;;1752041;28;20244;-61
2023/09/03 02:41:07;;;;;;;0.00;0.00;;;;;;;;;;1751876;28;20233;-61
2023/09/03 02:41:59;;;;;;;0.00;0.00;;;;;;;;;;1753067;28;20213;-61
2023/09/03 02:42:50;;;;;;;0.00;0.00;;;;;;;;;;1751687;28;20213;-61
2023/09/03 02:43:41;;;;;;;0.00;0.00;;;;;;;;;;1752499;28;20205;-60
2023/09/03 02:44:33;;;;;;;0.00;0.00;;;;;;;;;;1752460;28;20217;-60
2023/09/03 02:45:24;;;;;;;0.00;0.00;;;;;;;;;;1752065;28;20486;-60
2023/09/03 02:46:17;;;;;;;0.00;0.00;;;;;;;;;;1753188;28;20631;-60
2023/09/03 02:47:09;;;;;;;0.00;0.00;;;;;;;;;;1751635;28;20209;-60
2023/09/03 02:48:00;;;;;;;0.00;0.00;;;;;;;;;;1750603;28;20308;-60
2023/09/03 02:48:53;;;;;;;0.00;0.00;;;;;;;;;;1752909;28;20215;-60
2023/09/03 02:49:44;;;;;;;0.00;0.00;;;;;;;;;;1753153;28;20201;-60
2023/09/03 02:50:36;;;;;;;0.00;0.00;;;;;;;;;;1749862;28;20233;-60
2023/09/03 02:51:28;;;;;;;0.00;0.00;;;;;;;;;;1753987;28;20204;-61
2023/09/03 02:52:20;;;;;;;0.00;0.00;;;;;;;;;;1749231;28;20205;-60
2023/09/03 02:53:11;;;;;;;0.00;0.00;;;;;;;;;;1753376;28;20244;-60
2023/09/03 02:54:02;;;;;;;0.00;0.00;;;;;;;;;;1751080;28;20210;-60
2023/09/03 02:54:54;;;;;;;0.00;0.00;;;;;;;;;;1753485;28;20258;-60
2023/09/03 02:55:45;;;;;;;0.00;0.00;;;;;;;;;;1750023;28;20257;-60
2023/09/03 02:56:37;;;;;;;0.00;0.00;;;;;;;;;;1753003;28;20664;-60
2023/09/03 02:57:28;;;;;;;0.00;0.00;;;;;;;;;;1752983;28;20204;-60
2023/09/03 02:58:19;;;;;;;0.00;0.00;;;;;;;;;;1753295;28;20225;-60
2023/09/03 02:59:11;;;;;;;0.00;0.00;;;;;;;;;;1753098;28;20241;-60
2023/09/03 03:00:04;;;;;;;0.00;0.00;;;;;;;;;;1753652;28;20488;-60
2023/09/03 03:00:56;;;;;;;0.00;0.00;;;;;;;;;;1751022;28;20761;-60
2023/09/03 03:01:49;;;;;;;0.00;0.00;;;;;;;;;;1753576;28;20200;-60
2023/09/03 03:02:41;;;;;;;0.00;0.00;;;;;;;;;;1751057;28;20223;-60
2023/09/03 03:03:32;;;;;;;0.00;0.00;;;;;;;;;;1753581;28;20743;-60
2023/09/03 03:04:24;;;;;;;0.00;0.00;;;;;;;;;;1753197;28;20238;-60
2023/09/03 03:05:15;;;;;;;0.00;0.00;;;;;;;;;;1752039;28;20213;-61
2023/09/03 03:06:06;;;;;;;0.00;0.00;;;;;;;;;;1752730;28;20209;-60
2023/09/03 03:06:58;;;;;;;0.00;0.00;;;;;;;;;;1753105;28;20206;-60
2023/09/03 03:07:49;;;;;;;0.00;0.00;;;;;;;;;;1753045;28;20209;-61
2023/09/03 03:08:41;;;;;;;0.00;0.00;;;;;;;;;;1752990;28;20213;-61
2023/09/03 03:09:33;;;;;;;0.00;0.00;;;;;;;;;;1753207;28;20286;-60
2023/09/03 03:10:24;;;;;;;0.00;0.00;;;;;;;;;;1751165;28;20637;-60
2023/09/03 03:11:17;;;;;;;0.00;0.00;;;;;;;;;;1752582;28;20209;-60
2023/09/03 03:12:08;;;;;;;0.00;0.00;;;;;;;;;;1751561;28;20226;-61
2023/09/03 03:12:59;;;;;;;0.00;0.00;;;;;;;;;;1752713;28;20684;-60
2023/09/03 03:13:52;;;;;;;0.00;0.00;;;;;;;;;;1751264;28;20210;-60
2023/09/03 03:14:43;;;;;;;0.00;0.00;;;;;;;;;;1753596;28;20197;-60
2023/09/03 03:15:35;;;;;;;0.00;0.00;;;;;;;;;;1749530;28;20554;-61
2023/09/03 03:16:27;;;;;;;0.00;0.00;;;;;;;;;;1753590;28;20580;-60
2023/09/03 03:17:19;;;;;;;0.00;0.00;;;;;;;;;;1751090;28;20218;-61
2023/09/03 03:18:11;;;;;;;0.00;0.00;;;;;;;;;;1753283;28;20712;-60
2023/09/03 03:19:03;;;;;;;0.00;0.00;;;;;;;;;;1750965;28;20324;-61
2023/09/03 03:19:54;;;;;;;0.00;0.00;;;;;;;;;;1752878;28;20244;-61
2023/09/03 03:20:46;;;;;;;0.00;0.00;;;;;;;;;;1749585;28;20375;-61
2023/09/03 03:21:37;;;;;;;0.00;0.00;;;;;;;;;;1753022;28;20201;-61
2023/09/03 03:22:29;;;;;;;0.00;0.00;;;;;;;;;;1751545;28;20205;-61
2023/09/03 03:23:20;;;;;;;0.00;0.00;;;;;;;;;;1753824;28;20205;-61
2023/09/03 03:24:13;;;;;;;0.00;0.00;;;;;;;;;;1751383;28;20205;-61
2023/09/03 03:25:04;;;;;;;0.00;0.00;;;;;;;;;;1753713;28;20225;-61
2023/09/03 03:25:55;;;;;;;0.00;0.00;;;;;;;;;;1749609;28;20225;-60
2023/09/03 03:26:47;;;;;;;0.00;0.00;;;;;;;;;;1753651;28;20193;-61
2023/09/03 03:27:39;;;;;;;0.00;0.00;;;;;;;;;;1752448;28;20213;-61
2023/09/03 03:28:30;;;;;;;0.00;0.00;;;;;;;;;;1754265;28;20202;-60
2023/09/03 03:29:22;;;;;;;0.00;0.00;;;;;;;;;;1752646;28;20202;-61
2023/09/03 03:30:13;;;;;;;0.00;0.00;;;;;;;;;;1753521;28;20229;-61
2023/09/03 03:31:11;;;;;;;0.00;0.00;;;;;;;;;;1749912;28;20253;-61
2023/09/03 03:32:04;;;;;;;0.00;0.00;;;;;;;;;;1753166;28;20217;-61
2023/09/03 03:32:57;;;;;;;0.00;0.00;;;;;;;;;;1753715;28;20221;-61
2023/09/03 03:33:49;;;;;;;0.00;0.00;;;;;;;;;;1751717;28;20603;-61
2023/09/03 03:34:41;;;;;;;0.00;0.00;;;;;;;;;;1749892;28;20205;-61
2023/09/03 03:35:35;;;;;;;0.00;0.00;;;;;;;;;;1751483;28;20209;-60
2023/09/03 03:36:29;;;;;;;0.00;0.00;;;;;;;;;;1753625;28;20201;-61
2023/09/03 03:37:20;;;;;;;0.00;0.00;;;;;;;;;;1747708;28;20222;-61
2023/09/03 03:38:11;;;;;;;0.00;0.00;;;;;;;;;;1750114;28;20651;-61
2023/09/03 03:39:04;;;;;;;0.00;0.00;;;;;;;;;;1748587;28;20669;-61
2023/09/03 03:39:55;;;;;;;0.00;0.00;;;;;;;;;;1753561;28;20206;-61
2023/09/03 03:40:46;;;;;;;0.00;0.00;;;;;;;;;;1749804;28;20604;-60
2023/09/03 03:41:38;;;;;;;0.00;0.00;;;;;;;;;;1753390;28;20209;-61
2023/09/03 03:42:30;;;;;;;0.00;0.00;;;;;;;;;;1751831;28;20202;-61
2023/09/03 03:43:21;;;;;;;0.00;0.00;;;;;;;;;;1751980;28;20676;-61
2023/09/03 03:44:13;;;;;;;0.00;0.00;;;;;;;;;;1751742;28;20212;-60
2023/09/03 03:45:04;;;;;;;0.00;0.00;;;;;;;;;;1753391;28;20228;-60
2023/09/03 03:45:56;;;;;;;0.00;0.00;;;;;;;;;;1749325;28;20229;-60
2023/09/03 03:46:48;;;;;;;0.00;0.00;;;;;;;;;;1753455;28;20300;-61
2023/09/03 03:47:40;;;;;;;0.00;0.00;;;;;;;;;;1750454;28;20688;-61
2023/09/03 03:48:32;;;;;;;0.00;0.00;;;;;;;;;;1753858;28;20202;-61
2023/09/03 03:49:24;;;;;;;0.00;0.00;;;;;;;;;;1752510;28;20213;-60
2023/09/03 03:50:15;;;;;;;0.00;0.00;;;;;;;;;;1753289;28;20233;-61
2023/09/03 03:51:07;;;;;;;0.00;0.00;;;;;;;;;;1751242;28;20224;-61
2023/09/03 03:51:59;;;;;;;0.00;0.00;;;;;;;;;;1752708;28;20210;-60
2023/09/03 03:52:50;;;;;;;0.00;0.00;;;;;;;;;;1751495;28;20276;-61
2023/09/03 03:53:42;;;;;;;0.00;0.00;;;;;;;;;;1752208;28;20205;-61
2023/09/03 03:54:33;;;;;;;0.00;0.00;;;;;;;;;;1752340;28;20205;-59
2023/09/03 03:55:24;;;;;;;0.00;0.00;;;;;;;;;;1750584;28;20197;-61
2023/09/03 03:56:16;;;;;;;0.00;0.00;;;;;;;;;;1752022;28;20649;-61
2023/09/03 03:57:07;;;;;;;0.00;0.00;;;;;;;;;;1752731;28;20205;-60
2023/09/03 03:57:59;;;;;;;0.00;0.00;;;;;;;;;;1752641;28;20205;-61
2023/09/03 03:58:51;;;;;;;0.00;0.00;;;;;;;;;;1750953;28;20206;-61
2023/09/03 03:59:42;;;;;;;0.00;0.00;;;;;;;;;;1753054;28;20679;-61
2023/09/03 04:00:33;;;;;;;0.00;0.00;;;;;;;;;;1749125;28;20222;-61
2023/09/03 04:01:25;;;;;;;0.00;0.00;;;;;;;;;;1750343;28;20189;-61
2023/09/03 04:02:16;;;;;;;0.00;0.00;;;;;;;;;;1750800;28;20324;-61
2023/09/03 04:03:07;;;;;;;0.00;0.00;;;;;;;;;;1753187;28;20668;-60
2023/09/03 04:04:01;;;;;;;0.00;0.00;;;;;;;;;;1752350;28;20241;-61
2023/09/03 04:04:53;;;;;;;0.00;0.00;;;;;;;;;;1753035;28;20591;-61
2023/09/03 04:05:44;;;;;;;0.00;0.00;;;;;;;;;;1749277;28;20242;-60
2023/09/03 04:06:36;;;;;;;0.00;0.00;;;;;;;;;;1752686;28;20200;-61
2023/09/03 04:07:27;;;;;;;0.00;0.00;;;;;;;;;;1752998;28;20198;-61
2023/09/03 04:08:18;;;;;;;0.00;0.00;;;;;;;;;;1753062;28;20206;-60
2023/09/03 04:09:10;;;;;;;0.00;0.00;;;;;;;;;;1752809;28;20201;-61
2023/09/03 04:10:01;;;;;;;0.00;0.00;;;;;;;;;;1753149;28;20210;-60
2023/09/03 04:10:56;;;;;;;0.00;0.00;;;;;;;;;;1750500;28;20237;-60
2023/09/03 04:11:48;;;;;;;0.00;0.00;;;;;;;;;;1753076;28;20681;-60
2023/09/03 04:12:39;;;;;;;0.00;0.00;;;;;;;;;;1751622;28;20209;-60
2023/09/03 04:13:31;;;;;;;0.00;0.00;;;;;;;;;;1753736;28;20280;-61
2023/09/03 04:14:23;;;;;;;0.00;0.00;;;;;;;;;;1752578;28;20695;-61
2023/09/03 04:15:14;;;;;;;0.00;0.00;;;;;;;;;;1751861;28;20248;-61
2023/09/03 04:16:06;;;;;;;0.00;0.00;;;;;;;;;;1752061;28;20699;-61
2023/09/03 04:16:58;;;;;;;0.00;0.00;;;;;;;;;;1752871;28;20227;-61
2023/09/03 04:17:49;;;;;;;0.00;0.00;;;;;;;;;;1752972;28;20588;-60
2023/09/03 04:18:41;;;;;;;0.00;0.00;;;;;;;;;;1752504;28;20235;-61
2023/09/03 04:19:34;;;;;;;0.00;0.00;;;;;;;;;;1752937;28;20198;-61
2023/09/03 04:20:25;;;;;;;0.00;0.00;;;;;;;;;;1745055;28;20722;-62
2023/09/03 04:21:16;;;;;;;0.00;0.00;;;;;;;;;;1752565;28;20617;-61
2023/09/03 04:22:08;;;;;;;0.00;0.00;;;;;;;;;;1752023;28;20212;-61
2023/09/03 04:23:03;;;;;;;0.00;0.00;;;;;;;;;;1752277;28;20218;-61
2023/09/03 04:23:55;;;;;;;0.00;0.00;;;;;;;;;;1751929;28;20194;-61
2023/09/03 04:24:46;;;;;;;0.00;0.00;;;;;;;;;;1752894;28;20205;-61
2023/09/03 04:25:37;;;;;;;0.00;0.00;;;;;;;;;;1751102;28;20244;-60
2023/09/03 04:26:29;;;;;;;0.00;0.00;;;;;;;;;;1753192;28;20208;-60
2023/09/03 04:27:20;;;;;;;0.00;0.00;;;;;;;;;;1752195;28;20229;-60
2023/09/03 04:28:12;;;;;;;0.00;0.00;;;;;;;;;;1752922;28;20214;-60
2023/09/03 04:29:06;;;;;;;0.00;0.00;;;;;;;;;;1752420;28;20213;-60
2023/09/03 04:29:58;;;;;;;0.00;0.00;;;;;;;;;;1752787;28;20206;-60
2023/09/03 04:30:52;;;;;;;0.00;0.00;;;;;;;;;;1751053;28;20251;-61
2023/09/03 04:31:45;;;;;;;0.00;0.00;;;;;;;;;;1752696;28;20667;-61
2023/09/03 04:32:36;;;;;;;0.00;0.00;;;;;;;;;;1752373;28;20213;-60
2023/09/03 04:33:27;;;;;;;0.00;0.00;;;;;;;;;;1753091;28;20194;-60
2023/09/03 04:34:19;;;;;;;0.00;0.00;;;;;;;;;;1752442;28;20205;-61
2023/09/03 04:35:12;;;;;;;0.00;0.00;;;;;;;;;;1752035;28;20213;-61
2023/09/03 04:36:03;;;;;;;0.00;0.00;;;;;;;;;;1751794;28;20307;-61
2023/09/03 04:36:56;;;;;;;0.00;0.00;;;;;;;;;;1752678;28;20208;-60
2023/09/03 04:37:47;;;;;;;0.00;0.00;;;;;;;;;;1752320;28;20217;-60
2023/09/03 04:38:39;;;;;;;0.00;0.00;;;;;;;;;;1752676;28;20279;-61
2023/09/03 04:39:30;;;;;;;0.00;0.00;;;;;;;;;;1752796;28;20557;-61
2023/09/03 04:40:21;;;;;;;0.00;0.00;;;;;;;;;;1750830;28;20217;-61
2023/09/03 04:41:13;;;;;;;0.00;0.00;;;;;;;;;;1752575;28;20229;-61
2023/09/03 04:42:05;;;;;;;0.00;0.00;;;;;;;;;;1752394;28;20210;-61
2023/09/03 04:42:56;;;;;;;0.00;0.00;;;;;;;;;;1752525;28;20281;-61
2023/09/03 04:43:48;;;;;;;0.00;0.00;;;;;;;;;;1752235;28;20205;-61
2023/09/03 04:44:42;;;;;;;0.00;0.00;;;;;;;;;;1752631;28;20297;-60
2023/09/03 04:45:33;;;;;;;0.00;0.00;;;;;;;;;;1751237;28;20245;-60
2023/09/03 04:46:25;;;;;;;0.00;0.00;;;;;;;;;;1752446;28;20690;-60
2023/09/03 04:47:16;;;;;;;0.00;0.00;;;;;;;;;;1752347;28;20206;-60
2023/09/03 04:48:07;;;;;;;0.00;0.00;;;;;;;;;;1752477;28;20208;-60
2023/09/03 04:48:59;;;;;;;0.00;0.00;;;;;;;;;;1752256;28;20205;-60
2023/09/03 04:49:50;;;;;;;0.00;0.00;;;;;;;;;;1751888;28;20216;-60
2023/09/03 04:50:43;;;;;;;0.00;0.00;;;;;;;;;;1750957;28;20579;-60
2023/09/03 04:51:35;;;;;;;0.00;0.00;;;;;;;;;;1753075;28;20347;-60
2023/09/03 04:52:26;;;;;;;0.00;0.00;;;;;;;;;;1751971;28;20213;-61
2023/09/03 04:53:17;;;;;;;0.00;0.00;;;;;;;;;;1752726;28;20206;-61
2023/09/03 04:54:09;;;;;;;0.00;0.00;;;;;;;;;;1751973;28;20202;-61
2023/09/03 04:55:00;;;;;;;0.00;0.00;;;;;;;;;;1752730;28;20217;-61
2023/09/03 04:55:52;;;;;;;0.00;0.00;;;;;;;;;;1750802;28;20237;-61
2023/09/03 04:56:47;;;;;;;0.00;0.00;;;;;;;;;;1752403;28;20209;-60
2023/09/03 04:57:38;;;;;;;0.00;0.00;;;;;;;;;;1751662;28;20677;-60
2023/09/03 04:58:30;;;;;;;0.00;0.00;;;;;;;;;;1752811;28;20197;-61
2023/09/03 04:59:21;;;;;;;0.00;0.00;;;;;;;;;;1752155;28;20214;-60
2023/09/03 05:00:13;;;;;;;0.00;0.00;;;;;;;;;;1751999;28;20614;-61
2023/09/03 05:01:13;;;;;;;0.00;0.00;;;;;;;;;;1751233;28;20780;-61
2023/09/03 05:02:04;;;;;;;0.00;0.00;;;;;;;;;;1752503;28;20214;-60
2023/09/03 05:02:55;;;;;;;0.00;0.00;;;;;;;;;;1752434;28;20198;-61
2023/09/03 05:03:47;;;;;;;0.00;0.00;;;;;;;;;;1752256;28;20201;-61
2023/09/03 05:04:38;;;;;;;0.00;0.00;;;;;;;;;;1752379;28;20712;-58
2023/09/03 05:05:30;;;;;;;0.00;0.00;;;;;;;;;;1751216;28;20237;-60
2023/09/03 05:06:23;;;;;;;0.00;0.00;;;;;;;;;;1752376;28;20209;-61
2023/09/03 05:07:14;;;;;;;0.00;0.00;;;;;;;;;;1752204;28;20367;-60
2023/09/03 05:08:06;;;;;;;0.00;0.00;;;;;;;;;;1752702;28;20213;-60
2023/09/03 05:08:58;;;;;;;0.00;0.00;;;;;;;;;;1752099;28;20206;-60
2023/09/03 05:09:51;;;;;;;0.00;0.00;;;;;;;;;;1752495;28;20319;-60
2023/09/03 05:10:44;;;;;;;0.00;0.00;;;;;;;;;;1750648;28;20236;-60
2023/09/03 05:11:36;;;;;;;0.00;0.00;;;;;;;;;;1752902;28;20201;-60
2023/09/03 05:12:27;;;;;;;0.00;0.00;;;;;;;;;;1752168;28;20211;-60
2023/09/03 05:13:19;;;;;;;0.00;0.00;;;;;;;;;;1752269;28;20580;-60